Time;durP1;ratioP1;P1;durP2;ratioP2;P2;SDS_P1;SDS_P2;PMS_P1;PMS_P2;Temp;Humidity;BMP_temperature;BMP_pressure;BME280_temperature;BME280_humidity;BME280_pressure;Samples;Min_cycle;Max_cycle;Signal;HPM_P1;HPM_P2
2023/07/19 00:02:18;;;;;;;5.53;2.70;;;19.00;67.20;;;;;;5025954;28;20076;-84
2023/07/19 00:04:47;;;;;;;5.35;3.05;;;19.00;67.30;;;;;;5026807;28;20080;-84
2023/07/19 00:07:14;;;;;;;5.45;3.08;;;19.00;67.30;;;;;;5021331;28;20053;-84
2023/07/19 00:09:41;;;;;;;4.53;2.90;;;18.90;67.20;;;;;;5027920;28;20161;-84
2023/07/19 00:12:09;;;;;;;6.05;3.10;;;18.90;67.20;;;;;;5027962;28;20054;-84
2023/07/19 00:14:36;;;;;;;5.93;2.97;;;18.90;67.20;;;;;;5025651;28;20054;-83
2023/07/19 00:17:02;;;;;;;4.80;2.65;;;18.90;67.30;;;;;;5012951;28;20064;-84
2023/07/19 00:19:29;;;;;;;5.18;2.80;;;18.90;67.40;;;;;;5029234;28;20129;-84
2023/07/19 00:21:58;;;;;;;6.18;2.90;;;18.80;67.50;;;;;;5013171;28;20586;-84
2023/07/19 00:24:25;;;;;;;5.50;2.80;;;18.80;67.40;;;;;;5028844;28;20136;-84
2023/07/19 00:26:51;;;;;;;6.40;2.70;;;18.80;67.40;;;;;;5013433;28;20137;-83
2023/07/19 00:29:18;;;;;;;6.25;2.88;;;18.80;67.40;;;;;;5009986;28;20135;-83
2023/07/19 00:31:45;;;;;;;5.38;2.60;;;18.70;67.60;;;;;;4993343;28;20051;-83
2023/07/19 00:34:13;;;;;;;6.65;2.55;;;18.70;67.50;;;;;;5010570;28;20161;-83
2023/07/19 00:36:40;;;;;;;6.55;2.50;;;18.70;67.50;;;;;;5029710;28;20116;-83
2023/07/19 00:39:08;;;;;;;5.93;2.67;;;18.70;67.60;;;;;;5029500;28;20050;-83
2023/07/19 00:41:35;;;;;;;4.93;2.63;;;18.70;67.70;;;;;;5009175;28;20049;-83
2023/07/19 00:44:03;;;;;;;5.90;2.40;;;18.60;67.70;;;;;;5029417;28;20444;-83
2023/07/19 00:46:30;;;;;;;6.35;2.78;;;18.60;67.80;;;;;;5029106;28;20865;-83
2023/07/19 00:48:57;;;;;;;6.43;2.53;;;18.60;68.20;;;;;;5012403;28;20052;-83
2023/07/19 00:51:25;;;;;;;5.33;2.53;;;18.60;68.30;;;;;;5012885;28;20627;-83
2023/07/19 00:53:54;;;;;;;5.07;2.63;;;18.60;68.10;;;;;;5028429;28;20136;-83
2023/07/19 00:56:22;;;;;;;5.25;2.80;;;18.50;68.20;;;;;;5029061;28;20056;-83
2023/07/19 00:58:50;;;;;;;6.78;2.78;;;18.50;68.20;;;;;;5011307;28;20129;-83
2023/07/19 01:01:17;;;;;;;5.28;2.65;;;18.50;68.70;;;;;;5029086;28;20129;-83
2023/07/19 01:03:45;;;;;;;5.43;2.87;;;18.40;68.90;;;;;;5013102;28;20136;-83
2023/07/19 01:06:12;;;;;;;4.97;2.78;;;18.40;69.00;;;;;;5012553;28;20058;-83
2023/07/19 01:08:40;;;;;;;4.85;3.10;;;18.40;69.10;;;;;;5009174;28;20078;-83
2023/07/19 01:11:07;;;;;;;5.50;3.10;;;18.40;69.30;;;;;;5011440;28;20058;-83
2023/07/19 01:13:35;;;;;;;5.60;2.92;;;18.40;69.40;;;;;;5011502;28;20419;-83
2023/07/19 01:16:02;;;;;;;6.20;3.13;;;18.40;69.40;;;;;;5010393;28;20060;-83
2023/07/19 01:18:29;;;;;;;5.05;2.95;;;18.40;69.10;;;;;;5012349;28;20077;-83
2023/07/19 01:20:56;;;;;;;5.60;3.00;;;18.30;69.30;;;;;;5028305;28;20148;-83
2023/07/19 01:23:24;;;;;;;5.35;2.95;;;18.30;69.50;;;;;;5027793;28;20454;-83
2023/07/19 01:25:52;;;;;;;5.10;3.00;;;18.30;69.90;;;;;;5011918;28;20825;-83
2023/07/19 01:28:19;;;;;;;7.07;3.33;;;18.30;70.00;;;;;;5012236;28;20516;-83
2023/07/19 01:30:46;;;;;;;5.40;2.88;;;18.30;70.10;;;;;;5012399;28;20057;-83
2023/07/19 01:33:13;;;;;;;6.22;2.83;;;18.20;70.10;;;;;;5009735;28;20072;-84
2023/07/19 01:35:39;;;;;;;6.55;3.03;;;18.20;69.90;;;;;;5028407;28;20128;-83
2023/07/19 01:38:07;;;;;;;6.55;3.47;;;18.20;70.30;;;;;;5011085;28;20104;-83
2023/07/19 01:40:35;;;;;;;5.60;2.97;;;18.20;70.30;;;;;;5011914;28;20069;-83
2023/07/19 01:43:03;;;;;;;6.03;2.70;;;18.20;70.70;;;;;;5011002;28;20652;-83
2023/07/19 01:45:29;;;;;;;5.22;2.63;;;18.20;70.70;;;;;;5028687;28;20080;-83
2023/07/19 01:47:56;;;;;;;5.75;2.50;;;18.10;70.40;;;;;;5028177;28;20443;-83
2023/07/19 01:50:23;;;;;;;6.97;2.70;;;18.10;70.30;;;;;;5028060;28;20053;-83
2023/07/19 01:52:50;;;;;;;5.77;2.87;;;18.10;70.70;;;;;;5027427;28;20054;-83
2023/07/19 01:55:17;;;;;;;7.28;3.15;;;18.10;70.30;;;;;;5024990;28;20173;-83
2023/07/19 01:57:45;;;;;;;6.35;3.13;;;18.10;70.50;;;;;;5027913;28;20683;-83
2023/07/19 02:00:13;;;;;;;6.38;3.67;;;18.10;70.50;;;;;;5011504;28;20097;-83
2023/07/19 02:02:43;;;;;;;6.63;3.63;;;18.00;71.00;;;;;;5028133;28;20061;-84
2023/07/19 02:05:10;;;;;;;7.10;3.47;;;18.00;70.90;;;;;;5011709;28;20821;-83
2023/07/19 02:07:38;;;;;;;8.00;3.65;;;18.00;71.20;;;;;;5023330;28;20054;-83
2023/07/19 02:10:07;;;;;;;6.00;3.33;;;18.00;71.10;;;;;;5026867;28;20050;-83
2023/07/19 02:12:34;;;;;;;6.80;3.42;;;18.00;71.30;;;;;;5010467;28;20322;-83
2023/07/19 02:15:02;;;;;;;7.38;3.30;;;18.00;71.50;;;;;;5027776;28;20050;-83
2023/07/19 02:17:29;;;;;;;7.90;3.30;;;18.00;71.60;;;;;;5026594;28;20049;-84
2023/07/19 02:19:56;;;;;;;6.40;3.10;;;18.00;71.60;;;;;;5019009;28;20081;-83
2023/07/19 02:22:23;;;;;;;5.88;3.40;;;18.00;71.30;;;;;;5027255;28;20053;-84
2023/07/19 02:24:50;;;;;;;6.68;3.40;;;18.00;71.40;;;;;;5026953;28;20054;-83
2023/07/19 02:27:17;;;;;;;5.13;2.90;;;18.00;71.80;;;;;;5008665;28;20140;-83
2023/07/19 02:29:46;;;;;;;6.00;2.90;;;18.00;71.30;;;;;;5009780;28;20046;-83
2023/07/19 02:32:15;;;;;;;7.05;3.85;;;17.90;71.40;;;;;;5025726;28;20042;-83
2023/07/19 02:34:41;;;;;;;8.40;3.92;;;17.90;71.60;;;;;;5026532;28;20419;-84
2023/07/19 02:37:09;;;;;;;7.82;4.15;;;17.90;71.90;;;;;;5024399;28;20587;-83
2023/07/19 02:39:36;;;;;;;7.10;3.78;;;17.90;72.20;;;;;;5026278;28;20052;-83
2023/07/19 02:42:05;;;;;;;6.27;4.30;;;17.80;72.30;;;;;;5026653;28;20057;-83
2023/07/19 02:44:32;;;;;;;6.03;3.88;;;17.80;72.50;;;;;;5042761;28;20054;-83
2023/07/19 02:46:59;;;;;;;7.13;4.32;;;17.80;72.50;;;;;;5027366;28;20464;-83
2023/07/19 02:49:27;;;;;;;6.70;3.80;;;17.80;72.70;;;;;;5027194;28;20100;-83
2023/07/19 02:51:54;;;;;;;6.68;4.20;;;17.80;72.80;;;;;;5027224;28;20687;-83
2023/07/19 02:54:21;;;;;;;7.73;4.40;;;17.80;72.80;;;;;;5010555;28;20056;-84
2023/07/19 02:56:48;;;;;;;9.50;4.40;;;17.80;72.90;;;;;;5011169;28;20655;-83
2023/07/19 02:59:15;;;;;;;9.35;4.88;;;17.80;73.00;;;;;;5009688;28;20476;-83
2023/07/19 03:01:42;;;;;;;7.07;4.53;;;17.80;73.20;;;;;;5026259;28;20077;-83
2023/07/19 03:04:12;;;;;;;7.82;5.10;;;17.70;73.20;;;;;;5026767;28;20053;-83
2023/07/19 03:06:40;;;;;;;9.33;4.83;;;17.60;73.40;;;;;;5023515;28;20135;-83
2023/07/19 03:09:07;;;;;;;6.70;5.18;;;17.60;73.60;;;;;;5026537;28;20159;-83
2023/07/19 03:11:35;;;;;;;9.65;5.22;;;17.50;73.60;;;;;;5006933;28;20193;-83
2023/07/19 03:14:02;;;;;;;10.13;5.55;;;17.50;73.70;;;;;;5009592;28;20057;-84
2023/07/19 03:16:29;;;;;;;10.23;5.78;;;17.50;73.80;;;;;;5010047;28;20412;-84
2023/07/19 03:18:56;;;;;;;9.40;5.63;;;17.50;74.00;;;;;;5025685;28;20061;-83
2023/07/19 03:21:23;;;;;;;10.18;5.20;;;17.50;74.00;;;;;;5026423;28;20058;-84
2023/07/19 03:23:51;;;;;;;9.18;5.53;;;17.50;74.10;;;;;;5042982;28;20058;-84
2023/07/19 03:26:18;;;;;;;9.65;5.47;;;17.50;74.20;;;;;;5026750;28;20050;-83
2023/07/19 03:28:46;;;;;;;8.50;5.22;;;17.50;74.20;;;;;;5009838;28;20056;-84
2023/07/19 03:31:13;;;;;;;8.80;5.30;;;17.50;74.30;;;;;;5026483;28;20058;-84
2023/07/19 03:33:40;;;;;;;8.68;5.30;;;17.50;74.30;;;;;;5009976;28;20054;-84
2023/07/19 03:36:10;;;;;;;10.73;5.72;;;17.50;74.40;;;;;;5009071;28;20058;-83
2023/07/19 03:38:37;;;;;;;10.55;5.25;;;17.50;74.50;;;;;;5010151;28;20049;-83
2023/07/19 03:41:09;;;;;;;9.18;5.40;;;17.50;74.60;;;;;;5009864;28;20172;-83
2023/07/19 03:43:37;;;;;;;6.97;5.03;;;17.40;74.70;;;;;;5025346;28;20450;-83
2023/07/19 03:46:06;;;;;;;7.75;5.05;;;17.50;74.80;;;;;;5027306;28;20050;-84
2023/07/19 03:48:37;;;;;;;9.85;5.70;;;17.40;75.00;;;;;;5013214;28;20542;-83
2023/07/19 03:51:05;;;;;;;8.85;5.65;;;17.40;75.10;;;;;;5013299;28;20081;-83
2023/07/19 03:53:34;;;;;;;9.70;5.78;;;17.40;75.10;;;;;;5013040;28;20093;-83
2023/07/19 03:56:01;;;;;;;10.97;5.80;;;17.40;75.20;;;;;;5013359;28;20060;-83
2023/07/19 03:58:30;;;;;;;8.80;5.97;;;17.30;75.40;;;;;;5013422;28;20060;-84
2023/07/19 04:00:58;;;;;;;8.73;5.85;;;17.40;75.70;;;;;;5010118;28;20062;-83
2023/07/19 04:03:26;;;;;;;10.82;5.65;;;17.30;75.70;;;;;;4996306;28;20050;-83
2023/07/19 04:05:54;;;;;;;8.93;5.45;;;17.30;75.70;;;;;;5013071;28;20046;-84
2023/07/19 04:08:21;;;;;;;9.57;5.87;;;17.30;75.90;;;;;;5029592;28;20057;-84
2023/07/19 04:10:48;;;;;;;9.80;5.78;;;17.30;76.00;;;;;;5011334;28;20161;-84
2023/07/19 04:13:16;;;;;;;10.77;5.63;;;17.20;76.20;;;;;;5010142;28;20172;-83
2023/07/19 04:15:45;;;;;;;9.32;5.57;;;17.20;76.40;;;;;;5005304;28;20056;-83
2023/07/19 04:18:13;;;;;;;9.73;6.10;;;17.20;76.60;;;;;;5001894;28;20058;-84
2023/07/19 04:20:39;;;;;;;7.70;5.60;;;17.20;76.70;;;;;;5002065;28;20096;-84
2023/07/19 04:23:07;;;;;;;10.45;6.68;;;17.20;76.60;;;;;;5013119;28;20582;-83
2023/07/19 04:25:35;;;;;;;8.73;5.88;;;17.20;77.30;;;;;;5024847;28;20329;-83
2023/07/19 04:28:04;;;;;;;10.63;6.63;;;17.20;77.10;;;;;;5028751;28;20050;-84
2023/07/19 04:30:31;;;;;;;9.40;5.90;;;17.20;77.10;;;;;;5013019;28;20561;-84
2023/07/19 04:32:59;;;;;;;9.43;6.50;;;17.20;77.50;;;;;;5029119;28;20081;-83
2023/07/19 04:35:28;;;;;;;10.52;6.45;;;17.20;77.60;;;;;;5012453;28;20057;-83
2023/07/19 04:37:55;;;;;;;9.77;6.35;;;17.20;77.80;;;;;;5012634;28;20054;-84
2023/07/19 04:40:22;;;;;;;8.63;5.70;;;17.20;77.80;;;;;;5012606;28;20046;-84
2023/07/19 04:42:50;;;;;;;11.27;6.47;;;17.20;77.70;;;;;;5028269;28;20543;-84
2023/07/19 04:45:17;;;;;;;11.23;6.90;;;17.20;77.90;;;;;;5010301;28;20057;-84
2023/07/19 04:47:44;;;;;;;9.80;6.00;;;17.20;78.30;;;;;;5019115;28;20571;-84
2023/07/19 04:50:13;;;;;;;9.73;6.20;;;17.20;78.50;;;;;;5022568;28;20062;-84
2023/07/19 04:52:40;;;;;;;8.23;5.55;;;17.20;78.50;;;;;;5015793;28;20084;-84
2023/07/19 04:55:09;;;;;;;10.77;6.15;;;17.20;78.50;;;;;;5020940;28;20050;-84
2023/07/19 04:57:37;;;;;;;7.87;5.20;;;17.20;78.50;;;;;;5036475;28;20065;-84
2023/07/19 05:00:05;;;;;;;7.78;4.55;;;17.20;78.30;;;;;;5034970;28;20080;-83
2023/07/19 05:02:32;;;;;;;9.05;5.28;;;17.10;78.10;;;;;;5028126;28;20546;-83
2023/07/19 05:05:00;;;;;;;10.27;5.75;;;17.00;78.20;;;;;;5012087;28;20054;-83
2023/07/19 05:07:29;;;;;;;8.93;5.00;;;17.00;78.30;;;;;;5013253;28;20050;-83
2023/07/19 05:09:56;;;;;;;9.37;5.13;;;17.00;78.30;;;;;;5029364;28;20060;-83
2023/07/19 05:12:23;;;;;;;12.60;5.03;;;17.00;78.30;;;;;;5029135;28;20064;-83
2023/07/19 05:14:50;;;;;;;9.80;5.43;;;17.00;78.40;;;;;;5010309;28;20053;-83
2023/07/19 05:17:17;;;;;;;10.25;5.47;;;17.00;78.50;;;;;;5012872;28;20497;-83
2023/07/19 05:19:44;;;;;;;8.65;5.28;;;17.00;78.50;;;;;;5005569;28;20420;-84
2023/07/19 05:22:11;;;;;;;8.90;5.30;;;17.00;78.70;;;;;;5009411;28;20112;-84
2023/07/19 05:24:41;;;;;;;9.13;4.90;;;17.00;78.70;;;;;;5010438;28;20046;-83
2023/07/19 05:27:08;;;;;;;9.52;4.47;;;17.00;78.80;;;;;;5020186;28;20152;-83
2023/07/19 05:29:35;;;;;;;9.35;4.30;;;17.00;78.70;;;;;;5011036;28;20675;-83
2023/07/19 05:32:02;;;;;;;6.38;4.20;;;17.00;78.70;;;;;;5030348;28;20056;-83
2023/07/19 05:34:29;;;;;;;6.63;4.20;;;16.90;78.90;;;;;;5035912;28;20125;-83
2023/07/19 05:36:56;;;;;;;8.15;4.32;;;16.90;78.70;;;;;;5035906;28;20060;-83
2023/07/19 05:39:23;;;;;;;9.77;4.18;;;16.90;78.70;;;;;;5033654;28;20136;-83
2023/07/19 05:41:51;;;;;;;8.43;4.30;;;16.90;78.70;;;;;;5034491;28;20484;-84
2023/07/19 05:44:18;;;;;;;8.77;4.30;;;16.90;79.00;;;;;;5037486;28;20046;-83
2023/07/19 05:46:45;;;;;;;8.67;4.20;;;16.90;78.90;;;;;;5035439;28;20053;-83
2023/07/19 05:49:12;;;;;;;8.55;4.38;;;16.90;79.00;;;;;;5033023;28;20058;-83
2023/07/19 05:51:39;;;;;;;8.60;4.43;;;17.00;79.10;;;;;;5032684;28;20143;-84
2023/07/19 05:54:06;;;;;;;8.82;4.40;;;17.00;78.80;;;;;;5033474;28;21289;-83
2023/07/19 05:56:33;;;;;;;7.25;4.15;;;17.00;78.90;;;;;;5031953;28;20050;-84
2023/07/19 05:59:01;;;;;;;7.23;3.47;;;17.00;79.00;;;;;;5035250;28;20058;-83
2023/07/19 06:01:29;;;;;;;6.53;3.33;;;17.00;78.70;;;;;;5030070;28;20056;-84
2023/07/19 06:03:56;;;;;;;8.48;3.88;;;17.00;78.60;;;;;;5038792;28;20053;-84
2023/07/19 06:06:25;;;;;;;7.18;3.40;;;17.00;78.50;;;;;;5036062;28;20507;-84
2023/07/19 06:08:51;;;;;;;8.70;3.38;;;17.00;78.60;;;;;;5029286;28;20452;-84
2023/07/19 06:11:19;;;;;;;9.00;3.30;;;17.00;78.90;;;;;;5015829;28;20054;-85
2023/07/19 06:13:46;;;;;;;7.13;3.53;;;17.00;78.80;;;;;;5034164;28;20061;-85
2023/07/19 06:16:14;;;;;;;8.15;3.47;;;17.00;78.70;;;;;;5009367;28;20056;-85
2023/07/19 06:18:41;;;;;;;6.82;3.00;;;17.00;78.60;;;;;;5023272;28;20050;-84
2023/07/19 06:21:08;;;;;;;7.18;3.40;;;17.00;78.70;;;;;;5017009;28;20056;-85
2023/07/19 06:23:35;;;;;;;6.23;3.10;;;17.00;78.70;;;;;;5038988;28;20050;-84
2023/07/19 06:26:01;;;;;;;6.85;2.95;;;17.00;79.10;;;;;;5025797;28;20100;-85
2023/07/19 06:28:29;;;;;;;7.97;3.15;;;17.00;79.00;;;;;;5032773;28;20365;-85
2023/07/19 06:30:58;;;;;;;7.35;3.50;;;17.00;79.00;;;;;;5005888;28;20181;-85
2023/07/19 06:33:27;;;;;;;6.38;3.10;;;17.00;79.30;;;;;;5015109;28;20069;-85
2023/07/19 06:35:54;;;;;;;6.93;3.10;;;17.00;79.40;;;;;;5019255;28;20512;-85
2023/07/19 06:38:20;;;;;;;5.97;3.08;;;17.00;79.50;;;;;;5007483;28;20062;-85
2023/07/19 06:40:47;;;;;;;5.22;2.92;;;17.00;79.50;;;;;;5018492;28;20133;-84
2023/07/19 06:43:15;;;;;;;7.20;3.33;;;17.00;79.60;;;;;;5019745;28;20129;-86
2023/07/19 06:45:41;;;;;;;5.93;2.55;;;17.00;79.70;;;;;;5025811;28;20054;-84
2023/07/19 06:48:08;;;;;;;6.93;2.60;;;17.00;79.70;;;;;;5027888;28;20056;-85
2023/07/19 06:50:37;;;;;;;7.65;2.60;;;17.00;79.60;;;;;;5031725;28;20049;-83
2023/07/19 06:53:03;;;;;;;5.60;2.20;;;17.00;79.70;;;;;;5036334;28;20491;-82
2023/07/19 06:55:30;;;;;;;4.82;2.35;;;17.00;79.20;;;;;;5032539;28;20053;-84
2023/07/19 06:57:57;;;;;;;6.30;2.60;;;17.00;79.10;;;;;;5015378;28;20133;-84
2023/07/19 07:00:24;;;;;;;4.57;2.27;;;17.00;79.10;;;;;;5029037;28;20058;-83
2023/07/19 07:02:51;;;;;;;6.80;2.45;;;17.00;79.10;;;;;;5029755;28;20054;-83
2023/07/19 07:05:18;;;;;;;6.80;2.30;;;17.00;78.50;;;;;;5035879;28;20054;-83
2023/07/19 07:07:47;;;;;;;5.32;1.13;;;17.00;78.00;;;;;;5007075;28;20050;-84
2023/07/19 07:10:13;;;;;;;5.10;2.30;;;17.00;77.80;;;;;;5008970;28;20058;-83
2023/07/19 07:12:42;;;;;;;5.87;2.20;;;17.00;77.80;;;;;;5042891;28;20167;-87
2023/07/19 07:15:09;;;;;;;5.07;1.65;;;17.10;77.70;;;;;;5010191;28;20102;-82
2023/07/19 07:17:38;;;;;;;6.90;2.63;;;17.00;77.50;;;;;;5031225;28;20116;-83
2023/07/19 07:20:06;;;;;;;3.55;1.80;;;17.00;77.30;;;;;;5036537;28;20096;-82
2023/07/19 07:22:33;;;;;;;4.95;1.60;;;17.00;77.60;;;;;;5026687;28;20131;-82
2023/07/19 07:25:01;;;;;;;5.23;2.00;;;17.10;77.30;;;;;;5026550;28;20050;-84
2023/07/19 07:27:28;;;;;;;4.97;1.85;;;17.10;76.90;;;;;;5026474;28;20111;-84
2023/07/19 07:29:55;;;;;;;3.75;1.50;;;17.10;77.10;;;;;;5043474;28;20053;-84
2023/07/19 07:32:22;;;;;;;4.45;1.70;;;17.10;76.90;;;;;;5009523;28;20050;-84
2023/07/19 07:34:49;;;;;;;5.05;1.95;;;17.10;77.30;;;;;;5026774;28;20054;-80
2023/07/19 07:37:17;;;;;;;4.90;1.60;;;17.10;77.20;;;;;;5027318;28;20089;-81
2023/07/19 07:39:44;;;;;;;4.75;2.03;;;17.10;77.30;;;;;;5025889;28;20059;-82
2023/07/19 07:42:12;;;;;;;3.92;2.17;;;17.10;77.20;;;;;;5012507;28;20525;-82
2023/07/19 07:44:39;;;;;;;4.65;1.90;;;17.20;77.10;;;;;;5017814;28;20057;-81
2023/07/19 07:47:07;;;;;;;6.10;1.90;;;17.20;77.20;;;;;;5017698;28;20047;-82
2023/07/19 07:49:34;;;;;;;4.80;1.87;;;17.20;77.20;;;;;;5016548;28;20416;-84
2023/07/19 07:52:01;;;;;;;7.57;2.40;;;17.10;77.10;;;;;;5007461;28;20077;-83
2023/07/19 07:54:28;;;;;;;6.15;2.00;;;17.20;77.50;;;;;;5016163;28;20045;-84
2023/07/19 07:56:55;;;;;;;5.35;2.10;;;17.20;77.50;;;;;;5013969;28;20165;-84
2023/07/19 07:59:23;;;;;;;5.75;1.98;;;17.20;77.50;;;;;;5012201;28;20054;-84
2023/07/19 08:01:50;;;;;;;4.13;1.70;;;17.20;77.50;;;;;;5008289;28;20576;-84
2023/07/19 08:04:17;;;;;;;4.40;1.70;;;17.20;77.50;;;;;;4989893;28;20440;-85
2023/07/19 08:06:44;;;;;;;4.97;1.48;;;17.20;77.20;;;;;;5010168;28;20156;-85
2023/07/19 08:09:11;;;;;;;3.70;1.25;;;17.20;76.80;;;;;;5004873;28;20054;-82
2023/07/19 08:11:37;;;;;;;3.40;1.38;;;17.20;76.50;;;;;;5022630;28;20165;-84
2023/07/19 08:14:05;;;;;;;5.77;1.23;;;17.20;76.30;;;;;;5033523;28;20076;-84
2023/07/19 08:16:33;;;;;;;5.68;1.35;;;17.20;75.90;;;;;;5014965;28;20543;-83
2023/07/19 08:19:00;;;;;;;4.97;1.45;;;17.20;75.70;;;;;;5022149;28;20060;-82
2023/07/19 08:21:27;;;;;;;3.10;1.23;;;17.20;76.00;;;;;;5031141;28;20060;-83
2023/07/19 08:23:55;;;;;;;4.40;1.10;;;17.20;76.10;;;;;;5029012;28;20108;-84
2023/07/19 08:26:22;;;;;;;4.77;1.20;;;17.20;76.10;;;;;;5016876;28;20537;-83
2023/07/19 08:28:49;;;;;;;4.55;1.25;;;17.10;76.10;;;;;;5031832;28;20052;-83
2023/07/19 08:31:18;;;;;;;3.42;1.35;;;17.10;76.20;;;;;;5016040;28;20042;-83
2023/07/19 08:33:46;;;;;;;4.95;1.17;;;17.20;76.40;;;;;;5028780;28;20056;-83
2023/07/19 08:36:13;;;;;;;5.35;1.40;;;17.20;76.50;;;;;;5036517;28;20054;-82
2023/07/19 08:38:40;;;;;;;5.10;1.63;;;17.20;76.30;;;;;;5038988;28;20053;-81
2023/07/19 08:41:07;;;;;;;5.10;1.90;;;17.20;76.50;;;;;;5038747;28;20058;-81
2023/07/19 08:43:35;;;;;;;4.68;1.55;;;17.30;76.40;;;;;;5032683;28;20060;-81
2023/07/19 08:46:02;;;;;;;5.35;1.50;;;17.40;75.90;;;;;;5017840;28;20101;-82
2023/07/19 08:48:32;;;;;;;4.65;1.40;;;17.40;75.90;;;;;;5009739;28;20133;-83
2023/07/19 08:51:02;;;;;;;4.97;1.70;;;17.40;75.70;;;;;;5031993;28;20072;-81
2023/07/19 08:53:29;;;;;;;4.18;1.40;;;17.40;75.80;;;;;;5028071;28;20050;-84
2023/07/19 08:55:57;;;;;;;5.07;2.00;;;17.50;75.50;;;;;;5039597;28;20065;-84
2023/07/19 08:58:24;;;;;;;4.78;1.55;;;17.50;75.40;;;;;;5012317;28;20050;-85
2023/07/19 09:00:51;;;;;;;5.68;1.63;;;17.50;75.10;;;;;;5018958;28;20479;-85
2023/07/19 09:03:18;;;;;;;3.93;1.03;;;17.60;75.20;;;;;;5031114;28;20606;-84
2023/07/19 09:05:46;;;;;;;4.28;1.30;;;17.60;74.80;;;;;;5029518;28;20054;-84
2023/07/19 09:08:15;;;;;;;5.13;1.48;;;17.60;74.20;;;;;;5031548;28;20335;-83
2023/07/19 09:10:44;;;;;;;4.18;1.38;;;17.60;74.70;;;;;;5035667;28;20046;-83
2023/07/19 09:13:11;;;;;;;5.18;1.13;;;17.70;73.80;;;;;;5010819;28;20058;-83
2023/07/19 09:15:40;;;;;;;7.33;1.57;;;17.70;73.20;;;;;;5028695;28;20064;-84
2023/07/19 09:18:07;;;;;;;4.57;1.20;;;17.80;73.40;;;;;;5028697;28;20133;-82
2023/07/19 09:20:37;;;;;;;4.85;1.08;;;17.80;73.30;;;;;;5028482;28;20370;-84
2023/07/19 09:23:06;;;;;;;4.57;1.42;;;17.80;72.80;;;;;;5029020;28;20116;-82
2023/07/19 09:25:50;;;;;;;3.78;1.15;;;17.80;72.50;;;;;;5029030;28;20050;-82
2023/07/19 09:28:21;;;;;;;4.03;1.10;;;17.90;72.60;;;;;;5025617;28;20050;-82
2023/07/19 09:30:54;;;;;;;6.45;1.60;;;18.00;72.80;;;;;;5026072;28;20050;-82
2023/07/19 09:33:21;;;;;;;4.63;1.40;;;18.00;73.00;;;;;;5032293;28;20144;-83
2023/07/19 09:35:54;;;;;;;6.50;1.45;;;18.00;73.00;;;;;;5032340;28;20073;-82
2023/07/19 09:38:22;;;;;;;5.78;1.80;;;18.00;72.90;;;;;;5027850;28;20469;-82
2023/07/19 09:40:51;;;;;;;5.27;1.50;;;18.10;72.60;;;;;;5026911;28;20062;-83
2023/07/19 09:43:20;;;;;;;4.25;1.02;;;18.10;72.70;;;;;;5027498;28;20053;-85
2023/07/19 09:45:52;;;;;;;5.15;1.60;;;18.20;73.00;;;;;;5045753;28;20089;-84
2023/07/19 09:48:20;;;;;;;5.13;1.75;;;18.20;72.70;;;;;;5012367;28;20133;-84
2023/07/19 09:50:49;;;;;;;3.33;1.35;;;18.20;72.60;;;;;;5030743;28;20081;-83
2023/07/19 09:53:16;;;;;;;4.13;1.33;;;18.20;72.60;;;;;;5026054;28;20570;-83
2023/07/19 09:55:48;;;;;;;4.60;1.70;;;18.30;72.80;;;;;;5027669;28;20057;-83
2023/07/19 09:58:17;;;;;;;4.75;1.90;;;18.30;72.60;;;;;;5009907;28;20058;-81
2023/07/19 10:00:46;;;;;;;4.68;1.83;;;18.30;72.60;;;;;;5037481;28;20065;-82
2023/07/19 10:03:19;;;;;;;5.10;1.67;;;18.40;73.30;;;;;;5040294;28;20953;-83
2023/07/19 10:05:47;;;;;;;4.10;1.60;;;18.40;73.00;;;;;;5047773;28;20064;-83
2023/07/19 10:08:17;;;;;;;6.80;2.42;;;18.40;73.30;;;;;;5022142;28;20056;-81
2023/07/19 10:13:56;;;;;;;4.38;1.30;;;18.50;73.30;;;;;;5044142;28;20518;-84
2023/07/19 10:16:25;;;;;;;3.92;1.48;;;18.60;73.00;;;;;;5041779;28;20051;-84
2023/07/19 10:19:10;;;;;;;2.03;0.63;;;18.60;72.70;;;;;;5042142;28;20922;-84
2023/07/19 10:24:19;;;;;;;4.50;1.60;;;18.70;71.80;;;;;;5030729;28;20070;-83
2023/07/19 10:26:47;;;;;;;5.15;1.50;;;18.60;71.70;;;;;;5039530;28;20045;-82
2023/07/19 10:29:19;;;;;;;4.70;1.50;;;18.70;71.70;;;;;;5036706;28;20053;-82
2023/07/19 10:31:46;;;;;;;4.97;1.43;;;18.70;72.00;;;;;;5034732;28;20116;-81
2023/07/19 10:34:15;;;;;;;4.68;1.50;;;18.60;72.40;;;;;;5028008;28;20064;-81
2023/07/19 10:36:47;;;;;;;4.90;1.52;;;18.70;72.70;;;;;;5028412;28;20164;-83
2023/07/19 10:39:16;;;;;;;5.20;1.40;;;18.60;72.70;;;;;;5029685;28;20050;-83
2023/07/19 10:44:27;;;;;;;4.53;1.53;;;18.50;72.80;;;;;;5026801;28;20042;-84
2023/07/19 10:46:56;;;;;;;4.95;1.23;;;18.50;73.30;;;;;;5045181;28;20795;-84
2023/07/19 10:49:25;;;;;;;4.38;1.33;;;18.50;73.80;;;;;;5040510;28;20053;-84
2023/07/19 10:51:56;;;;;;;4.75;1.40;;;18.40;74.00;;;;;;5046011;28;20053;-84
2023/07/19 10:54:25;;;;;;;4.18;1.10;;;18.30;74.40;;;;;;5037516;28;20125;-84
2023/07/19 10:56:57;;;;;;;5.30;1.20;;;18.20;74.80;;;;;;5017627;28;20144;-84
2023/07/19 10:59:49;;;;;;;3.70;1.30;;;18.20;75.20;;;;;;5037276;28;20120;-84
2023/07/19 11:02:17;;;;;;;4.78;1.33;;;18.10;75.80;;;;;;5028629;28;20708;-84
2023/07/19 11:04:47;;;;;;;4.85;1.63;;;18.10;76.10;;;;;;5037222;28;20058;-84
2023/07/19 11:07:14;;;;;;;5.32;1.20;;;18.10;76.20;;;;;;5032360;28;20089;-85
2023/07/19 11:09:44;;;;;;;4.13;1.30;;;18.20;76.00;;;;;;5036050;28;20931;-84
2023/07/19 11:12:13;;;;;;;4.50;1.70;;;18.10;76.50;;;;;;5034019;28;20049;-80
2023/07/19 11:14:58;;;;;;;4.40;1.63;;;18.10;76.60;;;;;;5013875;28;20543;-84
2023/07/19 11:17:25;;;;;;;3.88;1.50;;;18.20;76.70;;;;;;5040197;28;20061;-80
2023/07/19 11:19:53;;;;;;;5.28;1.65;;;18.20;77.10;;;;;;5030309;28;20551;-82
2023/07/19 11:22:22;;;;;;;4.77;2.20;;;18.20;77.20;;;;;;5015406;28;20030;-76
2023/07/19 11:24:53;;;;;;;4.93;1.90;;;18.20;77.90;;;;;;5050993;28;20062;-83
2023/07/19 11:27:33;;;;;;;5.78;1.95;;;18.20;78.10;;;;;;5034398;28;20057;-83
2023/07/19 11:30:03;;;;;;;5.88;1.90;;;18.30;78.00;;;;;;5036308;28;20058;-81
2023/07/19 11:32:31;;;;;;;5.35;2.00;;;18.30;78.50;;;;;;5034266;28;20050;-88
2023/07/19 11:35:00;;;;;;;3.80;1.80;;;18.30;78.90;;;;;;5017736;28;20955;-88
2023/07/19 11:37:30;;;;;;;4.93;2.33;;;18.40;79.00;;;;;;5028306;28;20053;-88
2023/07/19 11:39:59;;;;;;;4.82;2.10;;;18.40;78.30;;;;;;5018910;28;20049;-87
2023/07/19 11:42:46;;;;;;;6.47;2.10;;;18.50;78.40;;;;;;5014083;28;20149;-88
2023/07/19 11:45:18;;;;;;;6.03;2.50;;;18.50;78.50;;;;;;5015918;28;20500;-86
2023/07/19 11:51:16;;;;;;;5.90;2.53;;;18.50;78.60;;;;;;5005478;28;20061;-81
2023/07/19 11:53:43;;;;;;;4.00;1.75;;;18.50;78.50;;;;;;5034650;28;20173;-80
2023/07/19 12:01:51;;;;;;;4.70;2.53;;;18.50;78.00;;;;;;5032749;28;20898;-88
2023/07/19 12:06:59;;;;;;;5.78;2.92;;;18.50;77.80;;;;;;5018389;28;20086;-87
2023/07/19 12:09:27;;;;;;;6.95;2.55;;;18.50;77.10;;;;;;5019697;28;20654;-86
2023/07/19 12:11:54;;;;;;;5.32;3.00;;;18.50;77.40;;;;;;5017465;28;20065;-82
2023/07/19 12:14:21;;;;;;;6.40;3.20;;;18.50;77.70;;;;;;5018359;28;20554;-78
2023/07/19 12:16:50;;;;;;;6.60;2.95;;;18.50;77.60;;;;;;5006118;28;20199;-78
2023/07/19 12:19:16;;;;;;;6.25;2.90;;;18.60;77.50;;;;;;5027775;28;20463;-79
2023/07/19 12:21:43;;;;;;;6.10;2.85;;;18.60;77.00;;;;;;5027308;28;20145;-78
2023/07/19 12:24:10;;;;;;;6.20;3.28;;;18.60;76.60;;;;;;5029423;28;20057;-78
2023/07/19 12:26:37;;;;;;;5.80;2.90;;;18.60;76.90;;;;;;5007486;28;20049;-78
2023/07/19 12:29:04;;;;;;;6.32;2.65;;;18.60;76.80;;;;;;5028956;28;20131;-79
2023/07/19 12:31:31;;;;;;;5.00;2.30;;;18.60;76.30;;;;;;5026820;28;20060;-78
2023/07/19 12:33:59;;;;;;;5.82;2.20;;;18.60;76.10;;;;;;5023594;28;20074;-78
2023/07/19 12:36:28;;;;;;;5.18;2.00;;;18.60;75.50;;;;;;5034384;28;20818;-84
2023/07/19 12:39:04;;;;;;;6.00;1.97;;;18.60;75.00;;;;;;5030444;28;20065;-82
2023/07/19 12:41:31;;;;;;;4.60;1.85;;;18.60;74.70;;;;;;5023675;28;20622;-85
2023/07/19 12:43:59;;;;;;;6.63;2.85;;;18.60;75.90;;;;;;5031710;28;20127;-83
2023/07/19 12:49:08;;;;;;;6.10;2.72;;;18.70;75.80;;;;;;5028947;28;20038;-86
2023/07/19 12:51:35;;;;;;;5.43;2.37;;;18.80;75.70;;;;;;5012773;28;20494;-80
2023/07/19 12:54:02;;;;;;;4.28;2.45;;;18.80;75.60;;;;;;5028270;28;20050;-79
2023/07/19 12:56:29;;;;;;;6.25;3.20;;;18.80;75.90;;;;;;5029565;28;20050;-79
2023/07/19 12:58:56;;;;;;;5.75;3.30;;;18.80;75.90;;;;;;5035231;28;20488;-83
2023/07/19 13:01:23;;;;;;;5.57;2.60;;;18.90;76.20;;;;;;5027103;28;20057;-80
2023/07/19 13:03:50;;;;;;;4.93;2.47;;;18.90;75.00;;;;;;5030176;28;20432;-77
2023/07/19 13:06:18;;;;;;;4.68;1.85;;;19.00;74.70;;;;;;5028799;28;20073;-77
2023/07/19 13:08:46;;;;;;;7.18;3.15;;;19.00;74.90;;;;;;5027387;28;20061;-79
2023/07/19 13:11:13;;;;;;;7.65;3.53;;;19.00;74.50;;;;;;5025846;28;20046;-80
2023/07/19 13:13:40;;;;;;;6.22;3.00;;;19.10;74.70;;;;;;5027589;28;20046;-81